sensor_id;sensor_type;location;lat;lon;timestamp;temperature;humidity
25504;DHT22;13410;52.114;5.718;2023-09-08T00:02:02;26.10;99.90
25504;DHT22;13410;52.114;5.718;2023-09-08T00:04:27;26.20;99.90
25504;DHT22;13410;52.114;5.718;2023-09-08T00:06:53;26.20;99.90
25504;DHT22;13410;52.114;5.718;2023-09-08T00:09:19;26.20;99.90
25504;DHT22;13410;52.114;5.718;2023-09-08T00:11:44;26.40;99.90
25504;DHT22;13410;52.114;5.718;2023-09-08T00:14:10;26.50;99.90
25504;DHT22;13410;52.114;5.718;2023-09-08T00:16:35;26.40;99.90
25504;DHT22;13410;52.114;5.718;2023-09-08T00:19:02;26.40;99.90
25504;DHT22;13410;52.114;5.718;2023-09-08T00:21:28;26.50;99.90
25504;DHT22;13410;52.114;5.718;2023-09-08T00:23:53;26.60;99.90
25504;DHT22;13410;52.114;5.718;2023-09-08T00:26:20;26.90;99.90
25504;DHT22;13410;52.114;5.718;2023-09-08T00:28:45;26.90;99.90
25504;DHT22;13410;52.114;5.718;2023-09-08T00:31:11;27.00;99.90
25504;DHT22;13410;52.114;5.718;2023-09-08T00:33:36;26.80;99.90
25504;DHT22;13410;52.114;5.718;2023-09-08T00:36:03;26.60;99.90
25504;DHT22;13410;52.114;5.718;2023-09-08T00:38:28;26.30;99.90
25504;DHT22;13410;52.114;5.718;2023-09-08T00:40:54;26.00;99.90
25504;DHT22;13410;52.114;5.718;2023-09-08T00:43:20;26.00;99.90
25504;DHT22;13410;52.114;5.718;2023-09-08T00:45:46;26.00;99.90
25504;DHT22;13410;52.114;5.718;2023-09-08T00:48:12;26.00;99.90
25504;DHT22;13410;52.114;5.718;2023-09-08T00:50:38;25.80;99.90
25504;DHT22;13410;52.114;5.718;2023-09-08T00:53:05;25.60;99.90
25504;DHT22;13410;52.114;5.718;2023-09-08T00:55:31;25.50;99.90
25504;DHT22;13410;52.114;5.718;2023-09-08T00:57:58;25.60;99.90
25504;DHT22;13410;52.114;5.718;2023-09-08T01:00:24;25.60;99.90
25504;DHT22;13410;52.114;5.718;2023-09-08T01:02:50;25.80;99.90
25504;DHT22;13410;52.114;5.718;2023-09-08T01:05:16;25.80;99.90
25504;DHT22;13410;52.114;5.718;2023-09-08T01:07:42;25.60;99.90
25504;DHT22;13410;52.114;5.718;2023-09-08T01:10:08;25.60;99.90
25504;DHT22;13410;52.114;5.718;2023-09-08T01:12:34;25.60;99.90
25504;DHT22;13410;52.114;5.718;2023-09-08T01:15:01;25.60;99.90
25504;DHT22;13410;52.114;5.718;2023-09-08T01:17:26;25.80;99.90
25504;DHT22;13410;52.114;5.718;2023-09-08T01:19:55;25.70;99.90
25504;DHT22;13410;52.114;5.718;2023-09-08T01:27:35;25.50;99.90
25504;DHT22;13410;52.114;5.718;2023-09-08T01:30:02;25.50;99.90
25504;DHT22;13410;52.114;5.718;2023-09-08T01:32:29;25.60;99.90
25504;DHT22;13410;52.114;5.718;2023-09-08T01:34:56;25.50;99.90
25504;DHT22;13410;52.114;5.718;2023-09-08T01:37:23;25.60;99.90
25504;DHT22;13410;52.114;5.718;2023-09-08T01:39:49;25.70;99.90
25504;DHT22;13410;52.114;5.718;2023-09-08T01:42:14;25.70;99.90
25504;DHT22;13410;52.114;5.718;2023-09-08T01:44:40;25.90;99.90
25504;DHT22;13410;52.114;5.718;2023-09-08T01:47:05;25.70;99.90
25504;DHT22;13410;52.114;5.718;2023-09-08T01:49:31;25.90;99.90
25504;DHT22;13410;52.114;5.718;2023-09-08T01:51:56;25.90;99.90
25504;DHT22;13410;52.114;5.718;2023-09-08T01:54:22;25.90;99.90
25504;DHT22;13410;52.114;5.718;2023-09-08T01:56:47;25.80;99.90
25504;DHT22;13410;52.114;5.718;2023-09-08T01:59:13;26.00;99.90
25504;DHT22;13410;52.114;5.718;2023-09-08T02:01:39;26.00;99.90
25504;DHT22;13410;52.114;5.718;2023-09-08T02:04:05;25.90;99.90
25504;DHT22;13410;52.114;5.718;2023-09-08T02:06:31;26.00;99.90
25504;DHT22;13410;52.114;5.718;2023-09-08T02:08:56;25.90;99.90
25504;DHT22;13410;52.114;5.718;2023-09-08T02:11:22;25.90;99.90
25504;DHT22;13410;52.114;5.718;2023-09-08T02:13:47;25.80;99.90
25504;DHT22;13410;52.114;5.718;2023-09-08T02:16:14;26.00;99.90
25504;DHT22;13410;52.114;5.718;2023-09-08T02:18:43;26.00;99.90
25504;DHT22;13410;52.114;5.718;2023-09-08T02:21:09;26.00;99.90
25504;DHT22;13410;52.114;5.718;2023-09-08T02:23:34;26.10;99.90
25504;DHT22;13410;52.114;5.718;2023-09-08T02:26:00;26.20;99.90
25504;DHT22;13410;52.114;5.718;2023-09-08T02:28:25;26.10;99.90
25504;DHT22;13410;52.114;5.718;2023-09-08T02:30:51;26.40;99.90
25504;DHT22;13410;52.114;5.718;2023-09-08T02:33:16;26.40;99.90
25504;DHT22;13410;52.114;5.718;2023-09-08T02:35:43;26.30;99.90
25504;DHT22;13410;52.114;5.718;2023-09-08T02:38:09;26.50;99.90
25504;DHT22;13410;52.114;5.718;2023-09-08T02:40:34;26.50;99.90
25504;DHT22;13410;52.114;5.718;2023-09-08T02:43:01;26.60;99.90
25504;DHT22;13410;52.114;5.718;2023-09-08T02:45:27;26.60;99.90
25504;DHT22;13410;52.114;5.718;2023-09-08T02:47:53;26.50;99.90
25504;DHT22;13410;52.114;5.718;2023-09-08T02:50:18;26.40;99.90
25504;DHT22;13410;52.114;5.718;2023-09-08T02:52:44;26.20;99.90
25504;DHT22;13410;52.114;5.718;2023-09-08T02:55:10;26.00;99.90
25504;DHT22;13410;52.114;5.718;2023-09-08T02:57:37;26.00;99.90
25504;DHT22;13410;52.114;5.718;2023-09-08T03:00:03;25.80;99.90
25504;DHT22;13410;52.114;5.718;2023-09-08T03:02:30;25.90;99.90
25504;DHT22;13410;52.114;5.718;2023-09-08T03:04:56;26.40;99.90
25504;DHT22;13410;52.114;5.718;2023-09-08T03:07:21;26.50;99.90
25504;DHT22;13410;52.114;5.718;2023-09-08T03:09:47;26.50;99.90
25504;DHT22;13410;52.114;5.718;2023-09-08T03:12:13;26.50;99.90
25504;DHT22;13410;52.114;5.718;2023-09-08T03:14:38;26.50;99.90
25504;DHT22;13410;52.114;5.718;2023-09-08T03:17:04;26.50;99.90
25504;DHT22;13410;52.114;5.718;2023-09-08T03:19:30;26.40;99.90
25504;DHT22;13410;52.114;5.718;2023-09-08T03:21:55;26.40;99.90
25504;DHT22;13410;52.114;5.718;2023-09-08T03:24:21;26.20;99.90
25504;DHT22;13410;52.114;5.718;2023-09-08T03:26:46;26.00;99.90
25504;DHT22;13410;52.114;5.718;2023-09-08T03:29:12;25.80;99.90
25504;DHT22;13410;52.114;5.718;2023-09-08T03:31:37;25.90;99.90
25504;DHT22;13410;52.114;5.718;2023-09-08T03:34:03;26.00;99.90
25504;DHT22;13410;52.114;5.718;2023-09-08T03:36:28;26.20;99.90
25504;DHT22;13410;52.114;5.718;2023-09-08T03:38:56;26.40;99.90
25504;DHT22;13410;52.114;5.718;2023-09-08T03:41:23;26.10;99.90
25504;DHT22;13410;52.114;5.718;2023-09-08T03:43:49;25.90;99.90
25504;DHT22;13410;52.114;5.718;2023-09-08T03:46:14;25.80;99.90
25504;DHT22;13410;52.114;5.718;2023-09-08T03:48:40;25.60;99.90
25504;DHT22;13410;52.114;5.718;2023-09-08T03:51:05;25.60;99.90
25504;DHT22;13410;52.114;5.718;2023-09-08T03:53:31;25.60;99.90
25504;DHT22;13410;52.114;5.718;2023-09-08T03:55:57;25.50;99.90
25504;DHT22;13410;52.114;5.718;2023-09-08T03:58:22;25.40;99.90
25504;DHT22;13410;52.114;5.718;2023-09-08T04:00:48;25.30;99.90
25504;DHT22;13410;52.114;5.718;2023-09-08T04:03:13;25.30;99.90
25504;DHT22;13410;52.114;5.718;2023-09-08T04:05:39;25.10;99.90
25504;DHT22;13410;52.114;5.718;2023-09-08T04:08:05;25.10;99.90
25504;DHT22;13410;52.114;5.718;2023-09-08T04:10:30;25.30;99.90
25504;DHT22;13410;52.114;5.718;2023-09-08T04:12:56;25.10;99.90
25504;DHT22;13410;52.114;5.718;2023-09-08T04:15:22;25.00;99.90
25504;DHT22;13410;52.114;5.718;2023-09-08T04:17:48;25.00;99.90
25504;DHT22;13410;52.114;5.718;2023-09-08T04:20:13;25.20;99.90
25504;DHT22;13410;52.114;5.718;2023-09-08T04:22:42;25.20;99.90
25504;DHT22;13410;52.114;5.718;2023-09-08T04:25:09;24.90;99.90
25504;DHT22;13410;52.114;5.718;2023-09-08T04:27:35;25.00;99.90
25504;DHT22;13410;52.114;5.718;2023-09-08T04:30:02;25.20;99.90
25504;DHT22;13410;52.114;5.718;2023-09-08T04:32:28;25.40;99.90
25504;DHT22;13410;52.114;5.718;2023-09-08T04:34:54;25.60;99.90
25504;DHT22;13410;52.114;5.718;2023-09-08T04:37:19;25.70;99.90
25504;DHT22;13410;52.114;5.718;2023-09-08T04:39:45;25.80;99.90
25504;DHT22;13410;52.114;5.718;2023-09-08T04:42:10;25.70;99.90
25504;DHT22;13410;52.114;5.718;2023-09-08T04:44:36;25.50;99.90
25504;DHT22;13410;52.114;5.718;2023-09-08T04:47:01;25.20;99.90
25504;DHT22;13410;52.114;5.718;2023-09-08T04:49:27;25.10;99.90
25504;DHT22;13410;52.114;5.718;2023-09-08T04:51:54;25.30;99.90
25504;DHT22;13410;52.114;5.718;2023-09-08T04:54:22;25.50;99.90
25504;DHT22;13410;52.114;5.718;2023-09-08T04:56:52;25.40;99.90
25504;DHT22;13410;52.114;5.718;2023-09-08T04:59:18;25.50;99.90
25504;DHT22;13410;52.114;5.718;2023-09-08T05:01:44;25.50;99.90
25504;DHT22;13410;52.114;5.718;2023-09-08T05:04:09;25.40;99.90
25504;DHT22;13410;52.114;5.718;2023-09-08T05:06:36;25.60;99.90
25504;DHT22;13410;52.114;5.718;2023-09-08T05:09:01;25.50;99.90
25504;DHT22;13410;52.114;5.718;2023-09-08T05:11:27;25.50;99.90
25504;DHT22;13410;52.114;5.718;2023-09-08T05:13:52;25.60;99.90
25504;DHT22;13410;52.114;5.718;2023-09-08T05:16:18;25.50;99.90
25504;DHT22;13410;52.114;5.718;2023-09-08T05:18:51;25.50;99.90
25504;DHT22;13410;52.114;5.718;2023-09-08T05:21:16;25.90;99.90
25504;DHT22;13410;52.114;5.718;2023-09-08T05:23:42;26.10;99.90
25504;DHT22;13410;52.114;5.718;2023-09-08T05:26:08;26.30;99.90
25504;DHT22;13410;52.114;5.718;2023-09-08T05:28:34;26.70;99.90
25504;DHT22;13410;52.114;5.718;2023-09-08T05:30:59;26.90;99.90
25504;DHT22;13410;52.114;5.718;2023-09-08T05:33:25;27.00;99.90
25504;DHT22;13410;52.114;5.718;2023-09-08T05:35:50;27.00;99.90
25504;DHT22;13410;52.114;5.718;2023-09-08T05:38:16;27.20;99.90
25504;DHT22;13410;52.114;5.718;2023-09-08T05:40:42;27.30;99.90
25504;DHT22;13410;52.114;5.718;2023-09-08T05:43:07;27.30;99.90
25504;DHT22;13410;52.114;5.718;2023-09-08T05:45:33;27.20;99.90
25504;DHT22;13410;52.114;5.718;2023-09-08T05:47:58;27.50;99.90
25504;DHT22;13410;52.114;5.718;2023-09-08T05:50:24;27.10;99.90
25504;DHT22;13410;52.114;5.718;2023-09-08T05:52:51;27.00;99.90
25504;DHT22;13410;52.114;5.718;2023-09-08T05:55:16;27.00;99.90
25504;DHT22;13410;52.114;5.718;2023-09-08T05:57:43;26.90;99.90
25504;DHT22;13410;52.114;5.718;2023-09-08T06:00:09;26.70;99.90
25504;DHT22;13410;52.114;5.718;2023-09-08T06:02:38;26.60;99.90
25504;DHT22;13410;52.114;5.718;2023-09-08T06:05:03;26.70;99.90
25504;DHT22;13410;52.114;5.718;2023-09-08T06:07:29;27.00;99.90
25504;DHT22;13410;52.114;5.718;2023-09-08T06:09:55;27.20;99.90
25504;DHT22;13410;52.114;5.718;2023-09-08T06:12:22;27.40;99.90
25504;DHT22;13410;52.114;5.718;2023-09-08T06:14:48;27.40;99.90
25504;DHT22;13410;52.114;5.718;2023-09-08T06:17:13;27.40;99.90
25504;DHT22;13410;52.114;5.718;2023-09-08T06:19:40;27.50;99.90
25504;DHT22;13410;52.114;5.718;2023-09-08T06:22:06;27.20;99.90
25504;DHT22;13410;52.114;5.718;2023-09-08T06:24:31;27.40;99.90
25504;DHT22;13410;52.114;5.718;2023-09-08T06:26:57;27.30;99.90
25504;DHT22;13410;52.114;5.718;2023-09-08T06:29:23;27.40;99.90
25504;DHT22;13410;52.114;5.718;2023-09-08T06:31:49;27.50;99.90
25504;DHT22;13410;52.114;5.718;2023-09-08T06:34:14;27.40;99.90
25504;DHT22;13410;52.114;5.718;2023-09-08T06:36:40;27.00;99.90
25504;DHT22;13410;52.114;5.718;2023-09-08T06:39:05;26.90;99.90
25504;DHT22;13410;52.114;5.718;2023-09-08T06:41:31;26.70;99.90
25504;DHT22;13410;52.114;5.718;2023-09-08T06:43:56;26.60;99.90
25504;DHT22;13410;52.114;5.718;2023-09-08T06:46:22;26.90;99.90
25504;DHT22;13410;52.114;5.718;2023-09-08T06:48:47;27.00;99.90
25504;DHT22;13410;52.114;5.718;2023-09-08T06:51:13;27.00;99.90
25504;DHT22;13410;52.114;5.718;2023-09-08T06:53:39;27.30;99.90
25504;DHT22;13410;52.114;5.718;2023-09-08T06:56:05;27.70;99.90
25504;DHT22;13410;52.114;5.718;2023-09-08T06:58:30;27.80;99.90
25504;DHT22;13410;52.114;5.718;2023-09-08T07:00:56;28.30;99.90
25504;DHT22;13410;52.114;5.718;2023-09-08T07:03:21;28.80;99.90
25504;DHT22;13410;52.114;5.718;2023-09-08T07:05:51;29.40;99.90
25504;DHT22;13410;52.114;5.718;2023-09-08T07:08:17;30.00;99.90
25504;DHT22;13410;52.114;5.718;2023-09-08T07:10:43;30.00;99.90
25504;DHT22;13410;52.114;5.718;2023-09-08T07:13:09;30.20;99.90
25504;DHT22;13410;52.114;5.718;2023-09-08T07:15:34;29.80;99.90
25504;DHT22;13410;52.114;5.718;2023-09-08T07:18:00;29.80;99.90
25504;DHT22;13410;52.114;5.718;2023-09-08T07:20:25;29.80;99.90
25504;DHT22;13410;52.114;5.718;2023-09-08T07:22:51;30.00;99.90
25504;DHT22;13410;52.114;5.718;2023-09-08T07:25:16;30.30;99.90
25504;DHT22;13410;52.114;5.718;2023-09-08T07:27:42;30.50;99.90
25504;DHT22;13410;52.114;5.718;2023-09-08T07:30:08;31.00;99.90
25504;DHT22;13410;52.114;5.718;2023-09-08T07:32:33;30.90;99.90
25504;DHT22;13410;52.114;5.718;2023-09-08T07:34:59;31.20;99.90
25504;DHT22;13410;52.114;5.718;2023-09-08T07:37:24;30.70;99.90
25504;DHT22;13410;52.114;5.718;2023-09-08T07:39:52;30.50;99.90
25504;DHT22;13410;52.114;5.718;2023-09-08T07:42:18;31.00;99.90
25504;DHT22;13410;52.114;5.718;2023-09-08T07:44:44;30.80;99.90
25504;DHT22;13410;52.114;5.718;2023-09-08T07:47:10;30.90;99.90
25504;DHT22;13410;52.114;5.718;2023-09-08T07:49:37;30.40;99.90
25504;DHT22;13410;52.114;5.718;2023-09-08T07:52:03;30.10;99.90
25504;DHT22;13410;52.114;5.718;2023-09-08T07:54:30;30.20;99.90
25504;DHT22;13410;52.114;5.718;2023-09-08T07:56:55;29.90;99.90
25504;DHT22;13410;52.114;5.718;2023-09-08T07:59:21;29.80;99.90
25504;DHT22;13410;52.114;5.718;2023-09-08T08:01:46;29.80;99.90
25504;DHT22;13410;52.114;5.718;2023-09-08T08:04:12;29.90;99.90
25504;DHT22;13410;52.114;5.718;2023-09-08T08:06:38;29.90;99.90
25504;DHT22;13410;52.114;5.718;2023-09-08T08:09:03;29.90;99.90
25504;DHT22;13410;52.114;5.718;2023-09-08T08:11:30;29.60;99.90
25504;DHT22;13410;52.114;5.718;2023-09-08T08:13:56;29.80;99.90
25504;DHT22;13410;52.114;5.718;2023-09-08T08:16:22;29.90;99.90
25504;DHT22;13410;52.114;5.718;2023-09-08T08:18:48;30.30;99.90
25504;DHT22;13410;52.114;5.718;2023-09-08T08:21:14;30.20;99.90
25504;DHT22;13410;52.114;5.718;2023-09-08T08:23:39;30.30;99.90
25504;DHT22;13410;52.114;5.718;2023-09-08T08:26:05;30.20;99.90
25504;DHT22;13410;52.114;5.718;2023-09-08T08:28:30;30.20;99.90
25504;DHT22;13410;52.114;5.718;2023-09-08T08:30:56;30.60;99.90
25504;DHT22;13410;52.114;5.718;2023-09-08T08:33:22;30.60;99.90
25504;DHT22;13410;52.114;5.718;2023-09-08T08:35:51;30.60;99.90
25504;DHT22;13410;52.114;5.718;2023-09-08T08:38:17;30.60;99.90
25504;DHT22;13410;52.114;5.718;2023-09-08T08:40:43;30.80;99.90
25504;DHT22;13410;52.114;5.718;2023-09-08T08:43:09;30.90;99.90
25504;DHT22;13410;52.114;5.718;2023-09-08T08:45:37;31.10;99.90
25504;DHT22;13410;52.114;5.718;2023-09-08T08:48:04;31.50;99.90
25504;DHT22;13410;52.114;5.718;2023-09-08T08:50:31;31.20;99.90
25504;DHT22;13410;52.114;5.718;2023-09-08T08:52:57;31.10;99.90
25504;DHT22;13410;52.114;5.718;2023-09-08T08:55:25;31.50;99.90
25504;DHT22;13410;52.114;5.718;2023-09-08T08:57:52;31.20;99.90
25504;DHT22;13410;52.114;5.718;2023-09-08T09:00:18;31.10;99.90
25504;DHT22;13410;52.114;5.718;2023-09-08T09:02:44;31.30;99.90
25504;DHT22;13410;52.114;5.718;2023-09-08T09:05:13;31.50;99.90
25504;DHT22;13410;52.114;5.718;2023-09-08T09:07:41;31.60;99.90
25504;DHT22;13410;52.114;5.718;2023-09-08T09:10:07;31.50;99.90
25504;DHT22;13410;52.114;5.718;2023-09-08T09:12:33;31.60;99.90
25504;DHT22;13410;52.114;5.718;2023-09-08T09:14:59;31.80;99.90
25504;DHT22;13410;52.114;5.718;2023-09-08T09:17:25;32.10;99.90
25504;DHT22;13410;52.114;5.718;2023-09-08T09:19:55;32.00;99.90
25504;DHT22;13410;52.114;5.718;2023-09-08T09:22:37;32.20;99.90
25504;DHT22;13410;52.114;5.718;2023-09-08T09:25:02;32.00;99.90
25504;DHT22;13410;52.114;5.718;2023-09-08T09:27:31;32.30;99.90
25504;DHT22;13410;52.114;5.718;2023-09-08T09:29:58;32.40;99.90
25504;DHT22;13410;52.114;5.718;2023-09-08T09:32:24;32.80;99.90
25504;DHT22;13410;52.114;5.718;2023-09-08T09:34:52;32.60;99.90
25504;DHT22;13410;52.114;5.718;2023-09-08T09:37:19;32.40;99.90
25504;DHT22;13410;52.114;5.718;2023-09-08T09:39:54;32.40;99.90
25504;DHT22;13410;52.114;5.718;2023-09-08T09:42:21;32.40;99.90
25504;DHT22;13410;52.114;5.718;2023-09-08T09:44:51;32.60;99.90
25504;DHT22;13410;52.114;5.718;2023-09-08T09:47:17;32.60;99.90
25504;DHT22;13410;52.114;5.718;2023-09-08T09:49:48;32.80;99.90
25504;DHT22;13410;52.114;5.718;2023-09-08T09:52:20;32.70;99.90
25504;DHT22;13410;52.114;5.718;2023-09-08T09:54:48;32.90;99.90
25504;DHT22;13410;52.114;5.718;2023-09-08T09:57:17;32.60;99.90
25504;DHT22;13410;52.114;5.718;2023-09-08T09:59:45;32.80;99.90
25504;DHT22;13410;52.114;5.718;2023-09-08T10:02:14;32.50;99.90
25504;DHT22;13410;52.114;5.718;2023-09-08T10:04:43;32.70;99.90
25504;DHT22;13410;52.114;5.718;2023-09-08T10:07:09;32.40;99.90
25504;DHT22;13410;52.114;5.718;2023-09-08T10:09:37;32.40;99.90
25504;DHT22;13410;52.114;5.718;2023-09-08T10:12:04;32.30;99.90
25504;DHT22;13410;52.114;5.718;2023-09-08T10:14:31;32.70;99.90
25504;DHT22;13410;52.114;5.718;2023-09-08T10:17:02;32.90;99.90
25504;DHT22;13410;52.114;5.718;2023-09-08T10:19:28;32.90;99.90
25504;DHT22;13410;52.114;5.718;2023-09-08T10:21:59;32.80;99.90
25504;DHT22;13410;52.114;5.718;2023-09-08T10:24:32;32.70;99.90
25504;DHT22;13410;52.114;5.718;2023-09-08T10:27:11;32.80;99.90
25504;DHT22;13410;52.114;5.718;2023-09-08T10:29:38;33.30;99.90
25504;DHT22;13410;52.114;5.718;2023-09-08T10:32:05;33.60;99.90
25504;DHT22;13410;52.114;5.718;2023-09-08T10:34:32;33.70;99.90
25504;DHT22;13410;52.114;5.718;2023-09-08T10:36:59;33.90;99.90
25504;DHT22;13410;52.114;5.718;2023-09-08T10:39:31;33.60;99.90
25504;DHT22;13410;52.114;5.718;2023-09-08T10:45:13;32.60;99.90
25504;DHT22;13410;52.114;5.718;2023-09-08T10:47:54;32.90;99.90
25504;DHT22;13410;52.114;5.718;2023-09-08T10:50:27;33.10;99.90
25504;DHT22;13410;52.114;5.718;2023-09-08T10:55:49;33.60;99.90
25504;DHT22;13410;52.114;5.718;2023-09-08T10:58:30;33.40;99.90
25504;DHT22;13410;52.114;5.718;2023-09-08T11:00:59;33.30;99.90
25504;DHT22;13410;52.114;5.718;2023-09-08T11:06:08;33.60;99.90
25504;DHT22;13410;52.114;5.718;2023-09-08T11:08:37;33.80;99.90
25504;DHT22;13410;52.114;5.718;2023-09-08T11:11:03;33.80;99.90
25504;DHT22;13410;52.114;5.718;2023-09-08T11:13:30;33.80;99.90
25504;DHT22;13410;52.114;5.718;2023-09-08T11:15:55;33.70;99.90
25504;DHT22;13410;52.114;5.718;2023-09-08T11:18:28;32.90;99.90
25504;DHT22;13410;52.114;5.718;2023-09-08T11:20:54;32.90;99.90
25504;DHT22;13410;52.114;5.718;2023-09-08T11:23:21;32.90;99.90
25504;DHT22;13410;52.114;5.718;2023-09-08T11:25:47;33.30;99.90
25504;DHT22;13410;52.114;5.718;2023-09-08T11:28:12;33.40;99.90
25504;DHT22;13410;52.114;5.718;2023-09-08T11:30:39;33.60;99.90
25504;DHT22;13410;52.114;5.718;2023-09-08T11:33:17;33.90;99.90
25504;DHT22;13410;52.114;5.718;2023-09-08T11:35:45;34.00;99.90
25504;DHT22;13410;52.114;5.718;2023-09-08T11:38:11;34.40;99.90
25504;DHT22;13410;52.114;5.718;2023-09-08T11:40:37;34.30;99.90
25504;DHT22;13410;52.114;5.718;2023-09-08T11:43:04;34.20;99.90
25504;DHT22;13410;52.114;5.718;2023-09-08T11:45:33;34.20;99.90
25504;DHT22;13410;52.114;5.718;2023-09-08T11:47:59;34.20;99.90
25504;DHT22;13410;52.114;5.718;2023-09-08T11:50:25;34.20;99.90
25504;DHT22;13410;52.114;5.718;2023-09-08T11:52:53;34.40;99.90
25504;DHT22;13410;52.114;5.718;2023-09-08T11:55:21;34.70;99.90
25504;DHT22;13410;52.114;5.718;2023-09-08T11:57:48;34.90;99.90
25504;DHT22;13410;52.114;5.718;2023-09-08T12:00:17;35.00;99.90
25504;DHT22;13410;52.114;5.718;2023-09-08T12:02:44;35.00;99.90
25504;DHT22;13410;52.114;5.718;2023-09-08T12:05:27;34.80;99.90
25504;DHT22;13410;52.114;5.718;2023-09-08T12:07:54;34.60;99.90
25504;DHT22;13410;52.114;5.718;2023-09-08T12:10:21;35.00;99.90
25504;DHT22;13410;52.114;5.718;2023-09-08T12:12:52;35.10;99.90
25504;DHT22;13410;52.114;5.718;2023-09-08T12:15:39;35.10;99.90
25504;DHT22;13410;52.114;5.718;2023-09-08T12:18:08;35.20;99.90
25504;DHT22;13410;52.114;5.718;2023-09-08T12:20:36;35.00;99.90
25504;DHT22;13410;52.114;5.718;2023-09-08T12:23:05;34.80;99.90
25504;DHT22;13410;52.114;5.718;2023-09-08T12:25:32;34.70;99.90
25504;DHT22;13410;52.114;5.718;2023-09-08T12:27:59;34.70;99.90
25504;DHT22;13410;52.114;5.718;2023-09-08T12:30:25;34.90;99.90
25504;DHT22;13410;52.114;5.718;2023-09-08T12:33:01;35.00;99.90
25504;DHT22;13410;52.114;5.718;2023-09-08T12:35:27;35.20;99.90
25504;DHT22;13410;52.114;5.718;2023-09-08T12:38:00;35.00;99.90
25504;DHT22;13410;52.114;5.718;2023-09-08T12:40:27;35.00;99.90
25504;DHT22;13410;52.114;5.718;2023-09-08T12:42:53;35.00;99.90
25504;DHT22;13410;52.114;5.718;2023-09-08T12:45:20;35.30;99.90
25504;DHT22;13410;52.114;5.718;2023-09-08T12:47:46;35.20;99.90
25504;DHT22;13410;52.114;5.718;2023-09-08T12:50:11;35.20;99.90
25504;DHT22;13410;52.114;5.718;2023-09-08T12:52:38;35.20;99.90
25504;DHT22;13410;52.114;5.718;2023-09-08T12:55:04;35.20;99.90
25504;DHT22;13410;52.114;5.718;2023-09-08T12:57:30;35.50;99.90
25504;DHT22;13410;52.114;5.718;2023-09-08T12:59:56;35.30;99.90
25504;DHT22;13410;52.114;5.718;2023-09-08T13:02:22;35.50;99.90
25504;DHT22;13410;52.114;5.718;2023-09-08T13:04:47;35.20;99.90
25504;DHT22;13410;52.114;5.718;2023-09-08T13:07:17;35.10;99.90
25504;DHT22;13410;52.114;5.718;2023-09-08T13:09:44;35.20;99.90
25504;DHT22;13410;52.114;5.718;2023-09-08T13:12:09;35.30;99.90
25504;DHT22;13410;52.114;5.718;2023-09-08T13:14:36;35.40;99.90
25504;DHT22;13410;52.114;5.718;2023-09-08T13:17:02;35.60;99.90
25504;DHT22;13410;52.114;5.718;2023-09-08T13:19:28;35.50;99.90
25504;DHT22;13410;52.114;5.718;2023-09-08T13:21:54;35.30;99.90
25504;DHT22;13410;52.114;5.718;2023-09-08T13:24:20;35.30;99.90
25504;DHT22;13410;52.114;5.718;2023-09-08T13:26:47;35.00;99.90
25504;DHT22;13410;52.114;5.718;2023-09-08T13:29:13;35.30;99.90
25504;DHT22;13410;52.114;5.718;2023-09-08T13:31:38;35.10;99.90
25504;DHT22;13410;52.114;5.718;2023-09-08T13:34:05;35.20;99.90
25504;DHT22;13410;52.114;5.718;2023-09-08T13:36:31;35.10;99.90
25504;DHT22;13410;52.114;5.718;2023-09-08T13:38:56;35.30;99.90
25504;DHT22;13410;52.114;5.718;2023-09-08T13:41:23;35.00;99.90
25504;DHT22;13410;52.114;5.718;2023-09-08T13:43:49;34.70;99.90
25504;DHT22;13410;52.114;5.718;2023-09-08T13:46:15;34.70;99.90
25504;DHT22;13410;52.114;5.718;2023-09-08T13:48:41;35.00;99.90
25504;DHT22;13410;52.114;5.718;2023-09-08T13:51:07;35.30;99.90
25504;DHT22;13410;52.114;5.718;2023-09-08T13:53:33;35.00;99.90
25504;DHT22;13410;52.114;5.718;2023-09-08T13:56:00;34.80;99.90
25504;DHT22;13410;52.114;5.718;2023-09-08T13:58:25;34.60;99.90
25504;DHT22;13410;52.114;5.718;2023-09-08T14:00:51;34.60;99.90
25504;DHT22;13410;52.114;5.718;2023-09-08T14:03:17;35.00;99.90
25504;DHT22;13410;52.114;5.718;2023-09-08T14:05:44;35.20;99.90
25504;DHT22;13410;52.114;5.718;2023-09-08T14:08:09;35.20;99.90
25504;DHT22;13410;52.114;5.718;2023-09-08T14:10:35;35.30;99.90
25504;DHT22;13410;52.114;5.718;2023-09-08T14:13:01;35.40;99.90
25504;DHT22;13410;52.114;5.718;2023-09-08T14:15:26;35.20;99.90
25504;DHT22;13410;52.114;5.718;2023-09-08T14:17:52;34.70;99.90
25504;DHT22;13410;52.114;5.718;2023-09-08T14:20:18;35.00;99.90
25504;DHT22;13410;52.114;5.718;2023-09-08T14:22:45;35.20;99.90
25504;DHT22;13410;52.114;5.718;2023-09-08T14:25:11;35.10;99.90
25504;DHT22;13410;52.114;5.718;2023-09-08T14:27:38;35.00;99.90
25504;DHT22;13410;52.114;5.718;2023-09-08T14:30:10;34.80;99.90
25504;DHT22;13410;52.114;5.718;2023-09-08T14:32:35;34.40;99.90
25504;DHT22;13410;52.114;5.718;2023-09-08T14:35:01;34.10;99.90
25504;DHT22;13410;52.114;5.718;2023-09-08T14:37:26;34.00;99.90
25504;DHT22;13410;52.114;5.718;2023-09-08T14:39:52;34.00;99.90
25504;DHT22;13410;52.114;5.718;2023-09-08T14:42:17;34.40;99.90
25504;DHT22;13410;52.114;5.718;2023-09-08T14:44:43;34.90;99.90
25504;DHT22;13410;52.114;5.718;2023-09-08T14:47:09;35.00;99.90
25504;DHT22;13410;52.114;5.718;2023-09-08T14:49:34;34.90;99.90
25504;DHT22;13410;52.114;5.718;2023-09-08T14:52:00;35.10;99.90
25504;DHT22;13410;52.114;5.718;2023-09-08T14:54:26;35.40;99.90
25504;DHT22;13410;52.114;5.718;2023-09-08T14:56:54;35.50;99.90
25504;DHT22;13410;52.114;5.718;2023-09-08T14:59:20;35.60;99.90
25504;DHT22;13410;52.114;5.718;2023-09-08T15:01:46;35.60;99.90
25504;DHT22;13410;52.114;5.718;2023-09-08T15:04:11;35.70;99.90
25504;DHT22;13410;52.114;5.718;2023-09-08T15:06:38;35.90;99.90
25504;DHT22;13410;52.114;5.718;2023-09-08T15:09:04;36.00;99.90
25504;DHT22;13410;52.114;5.718;2023-09-08T15:11:30;36.10;99.90
25504;DHT22;13410;52.114;5.718;2023-09-08T15:13:57;36.00;99.90
25504;DHT22;13410;52.114;5.718;2023-09-08T15:16:22;35.90;99.90
25504;DHT22;13410;52.114;5.718;2023-09-08T15:18:49;36.00;99.90
25504;DHT22;13410;52.114;5.718;2023-09-08T15:21:16;35.90;99.90
25504;DHT22;13410;52.114;5.718;2023-09-08T15:23:41;36.00;99.90
25504;DHT22;13410;52.114;5.718;2023-09-08T15:26:07;35.90;99.90
25504;DHT22;13410;52.114;5.718;2023-09-08T15:28:33;36.00;99.90
25504;DHT22;13410;52.114;5.718;2023-09-08T15:30:58;36.00;99.90
25504;DHT22;13410;52.114;5.718;2023-09-08T15:33:25;35.90;99.90
25504;DHT22;13410;52.114;5.718;2023-09-08T15:35:51;35.90;99.90
25504;DHT22;13410;52.114;5.718;2023-09-08T15:38:17;35.80;99.90
25504;DHT22;13410;52.114;5.718;2023-09-08T15:43:31;35.90;99.90